sensor_id;sensor_type;location;lat;lon;timestamp;P1;durP1;ratioP1;P2;durP2;ratioP2
22289;SDS011;11313;50.116;8.424;2023-12-22T00:02:04;3.22;;;0.70;;
22289;SDS011;11313;50.116;8.424;2023-12-22T00:04:30;4.03;;;0.60;;
22289;SDS011;11313;50.116;8.424;2023-12-22T00:06:55;2.10;;;0.60;;
22289;SDS011;11313;50.116;8.424;2023-12-22T00:09:20;4.18;;;0.80;;
22289;SDS011;11313;50.116;8.424;2023-12-22T00:11:46;1.27;;;0.85;;
22289;SDS011;11313;50.116;8.424;2023-12-22T00:14:11;2.75;;;0.90;;
22289;SDS011;11313;50.116;8.424;2023-12-22T00:16:37;2.70;;;0.85;;
22289;SDS011;11313;50.116;8.424;2023-12-22T00:19:03;1.50;;;0.60;;
22289;SDS011;11313;50.116;8.424;2023-12-22T00:21:29;1.30;;;0.70;;
22289;SDS011;11313;50.116;8.424;2023-12-22T00:23:54;1.30;;;0.70;;
22289;SDS011;11313;50.116;8.424;2023-12-22T00:26:20;0.88;;;0.77;;
22289;SDS011;11313;50.116;8.424;2023-12-22T00:28:45;1.45;;;0.82;;
22289;SDS011;11313;50.116;8.424;2023-12-22T00:31:11;2.60;;;0.80;;
22289;SDS011;11313;50.116;8.424;2023-12-22T00:33:39;1.48;;;0.70;;
22289;SDS011;11313;50.116;8.424;2023-12-22T00:36:04;1.15;;;0.60;;
22289;SDS011;11313;50.116;8.424;2023-12-22T00:38:30;1.40;;;0.65;;
22289;SDS011;11313;50.116;8.424;2023-12-22T00:40:56;1.58;;;0.70;;
22289;SDS011;11313;50.116;8.424;2023-12-22T00:43:21;1.15;;;0.63;;
22289;SDS011;11313;50.116;8.424;2023-12-22T00:45:47;1.35;;;0.50;;
22289;SDS011;11313;50.116;8.424;2023-12-22T00:48:12;1.20;;;0.55;;
22289;SDS011;11313;50.116;8.424;2023-12-22T00:50:38;2.63;;;0.60;;
22289;SDS011;11313;50.116;8.424;2023-12-22T00:53:03;0.77;;;0.50;;
22289;SDS011;11313;50.116;8.424;2023-12-22T00:55:29;1.42;;;0.60;;
22289;SDS011;11313;50.116;8.424;2023-12-22T00:57:54;1.35;;;0.90;;
22289;SDS011;11313;50.116;8.424;2023-12-22T01:00:20;5.65;;;1.13;;
22289;SDS011;11313;50.116;8.424;2023-12-22T01:02:45;0.88;;;0.60;;
22289;SDS011;11313;50.116;8.424;2023-12-22T01:05:11;1.50;;;0.60;;
22289;SDS011;11313;50.116;8.424;2023-12-22T01:07:36;2.13;;;0.50;;
22289;SDS011;11313;50.116;8.424;2023-12-22T01:10:02;1.63;;;0.70;;
22289;SDS011;11313;50.116;8.424;2023-12-22T01:12:28;0.82;;;0.50;;
22289;SDS011;11313;50.116;8.424;2023-12-22T01:14:55;1.45;;;0.52;;
22289;SDS011;11313;50.116;8.424;2023-12-22T01:17:21;0.57;;;0.50;;
22289;SDS011;11313;50.116;8.424;2023-12-22T01:19:47;0.75;;;0.50;;
22289;SDS011;11313;50.116;8.424;2023-12-22T01:22:12;0.57;;;0.40;;
22289;SDS011;11313;50.116;8.424;2023-12-22T01:24:38;1.95;;;0.88;;
22289;SDS011;11313;50.116;8.424;2023-12-22T01:27:07;0.50;;;0.40;;
22289;SDS011;11313;50.116;8.424;2023-12-22T01:29:34;0.90;;;0.50;;
22289;SDS011;11313;50.116;8.424;2023-12-22T01:31:59;0.82;;;0.50;;
22289;SDS011;11313;50.116;8.424;2023-12-22T01:34:25;0.63;;;0.52;;
22289;SDS011;11313;50.116;8.424;2023-12-22T01:36:50;1.17;;;0.55;;
22289;SDS011;11313;50.116;8.424;2023-12-22T01:39:16;0.93;;;0.60;;
22289;SDS011;11313;50.116;8.424;2023-12-22T01:41:41;0.90;;;0.57;;
22289;SDS011;11313;50.116;8.424;2023-12-22T01:44:07;1.30;;;0.60;;
22289;SDS011;11313;50.116;8.424;2023-12-22T01:46:32;2.03;;;0.65;;
22289;SDS011;11313;50.116;8.424;2023-12-22T01:48:59;1.23;;;0.52;;
22289;SDS011;11313;50.116;8.424;2023-12-22T01:51:28;1.17;;;0.52;;
22289;SDS011;11313;50.116;8.424;2023-12-22T01:53:56;1.65;;;0.50;;
22289;SDS011;11313;50.116;8.424;2023-12-22T01:56:21;0.73;;;0.43;;
22289;SDS011;11313;50.116;8.424;2023-12-22T01:58:47;0.68;;;0.60;;
22289;SDS011;11313;50.116;8.424;2023-12-22T02:01:15;0.80;;;0.45;;
22289;SDS011;11313;50.116;8.424;2023-12-22T02:03:41;2.22;;;0.60;;
22289;SDS011;11313;50.116;8.424;2023-12-22T02:06:07;1.70;;;0.75;;
22289;SDS011;11313;50.116;8.424;2023-12-22T02:08:33;1.92;;;0.65;;
22289;SDS011;11313;50.116;8.424;2023-12-22T02:10:58;0.77;;;0.40;;
22289;SDS011;11313;50.116;8.424;2023-12-22T02:13:24;0.50;;;0.30;;
22289;SDS011;11313;50.116;8.424;2023-12-22T02:15:51;0.68;;;0.40;;
22289;SDS011;11313;50.116;8.424;2023-12-22T02:18:26;1.05;;;0.40;;
22289;SDS011;11313;50.116;8.424;2023-12-22T02:20:58;1.00;;;0.50;;
22289;SDS011;11313;50.116;8.424;2023-12-22T02:23:23;0.90;;;0.50;;
22289;SDS011;11313;50.116;8.424;2023-12-22T02:25:50;0.60;;;0.40;;
22289;SDS011;11313;50.116;8.424;2023-12-22T02:28:21;0.73;;;0.40;;
22289;SDS011;11313;50.116;8.424;2023-12-22T02:30:53;0.70;;;0.47;;
22289;SDS011;11313;50.116;8.424;2023-12-22T02:33:26;0.77;;;0.52;;
22289;SDS011;11313;50.116;8.424;2023-12-22T02:35:55;0.90;;;0.40;;
22289;SDS011;11313;50.116;8.424;2023-12-22T02:38:27;0.43;;;0.38;;
22289;SDS011;11313;50.116;8.424;2023-12-22T02:40:53;1.42;;;0.40;;
22289;SDS011;11313;50.116;8.424;2023-12-22T02:43:22;0.85;;;0.47;;
22289;SDS011;11313;50.116;8.424;2023-12-22T02:45:50;0.80;;;0.43;;
22289;SDS011;11313;50.116;8.424;2023-12-22T02:48:16;0.88;;;0.50;;
22289;SDS011;11313;50.116;8.424;2023-12-22T02:50:41;1.25;;;0.40;;
22289;SDS011;11313;50.116;8.424;2023-12-22T02:53:07;0.52;;;0.35;;
22289;SDS011;11313;50.116;8.424;2023-12-22T02:55:32;0.73;;;0.40;;
22289;SDS011;11313;50.116;8.424;2023-12-22T02:57:58;0.68;;;0.40;;
22289;SDS011;11313;50.116;8.424;2023-12-22T03:00:24;0.50;;;0.45;;
22289;SDS011;11313;50.116;8.424;2023-12-22T03:02:49;1.05;;;0.40;;
22289;SDS011;11313;50.116;8.424;2023-12-22T03:05:15;1.15;;;0.50;;
22289;SDS011;11313;50.116;8.424;2023-12-22T03:07:40;0.73;;;0.40;;
22289;SDS011;11313;50.116;8.424;2023-12-22T03:10:06;0.45;;;0.30;;
22289;SDS011;11313;50.116;8.424;2023-12-22T03:12:31;0.50;;;0.38;;
22289;SDS011;11313;50.116;8.424;2023-12-22T03:14:57;0.80;;;0.50;;
22289;SDS011;11313;50.116;8.424;2023-12-22T03:17:22;1.10;;;0.40;;
22289;SDS011;11313;50.116;8.424;2023-12-22T03:19:48;0.60;;;0.25;;
22289;SDS011;11313;50.116;8.424;2023-12-22T03:22:13;0.57;;;0.40;;
22289;SDS011;11313;50.116;8.424;2023-12-22T03:24:39;0.63;;;0.50;;
22289;SDS011;11313;50.116;8.424;2023-12-22T03:27:04;0.73;;;0.32;;
22289;SDS011;11313;50.116;8.424;2023-12-22T03:29:30;0.80;;;0.43;;
22289;SDS011;11313;50.116;8.424;2023-12-22T03:31:55;0.80;;;0.50;;
22289;SDS011;11313;50.116;8.424;2023-12-22T03:34:21;0.50;;;0.32;;
22289;SDS011;11313;50.116;8.424;2023-12-22T03:36:46;0.50;;;0.32;;
22289;SDS011;11313;50.116;8.424;2023-12-22T03:39:13;0.57;;;0.38;;
22289;SDS011;11313;50.116;8.424;2023-12-22T03:41:42;1.17;;;0.50;;
22289;SDS011;11313;50.116;8.424;2023-12-22T03:44:07;0.40;;;0.40;;
22289;SDS011;11313;50.116;8.424;2023-12-22T03:46:33;0.70;;;0.30;;
22289;SDS011;11313;50.116;8.424;2023-12-22T03:48:58;0.32;;;0.30;;
22289;SDS011;11313;50.116;8.424;2023-12-22T03:51:24;1.35;;;0.30;;
22289;SDS011;11313;50.116;8.424;2023-12-22T03:53:49;0.73;;;0.45;;
22289;SDS011;11313;50.116;8.424;2023-12-22T03:56:15;0.88;;;0.30;;
22289;SDS011;11313;50.116;8.424;2023-12-22T03:58:40;0.60;;;0.40;;
22289;SDS011;11313;50.116;8.424;2023-12-22T04:01:06;1.33;;;0.40;;
22289;SDS011;11313;50.116;8.424;2023-12-22T04:03:32;0.80;;;0.30;;
22289;SDS011;11313;50.116;8.424;2023-12-22T04:06:01;0.52;;;0.40;;
22289;SDS011;11313;50.116;8.424;2023-12-22T04:08:29;0.55;;;0.30;;
22289;SDS011;11313;50.116;8.424;2023-12-22T04:10:55;0.35;;;0.35;;
22289;SDS011;11313;50.116;8.424;2023-12-22T04:13:21;0.70;;;0.40;;
22289;SDS011;11313;50.116;8.424;2023-12-22T04:15:46;0.60;;;0.40;;
22289;SDS011;11313;50.116;8.424;2023-12-22T04:18:11;0.68;;;0.40;;
22289;SDS011;11313;50.116;8.424;2023-12-22T04:20:37;0.35;;;0.35;;
22289;SDS011;11313;50.116;8.424;2023-12-22T04:23:02;0.40;;;0.30;;
22289;SDS011;11313;50.116;8.424;2023-12-22T04:25:28;0.75;;;0.38;;
22289;SDS011;11313;50.116;8.424;2023-12-22T04:27:54;0.40;;;0.30;;
22289;SDS011;11313;50.116;8.424;2023-12-22T04:30:19;0.50;;;0.30;;
22289;SDS011;11313;50.116;8.424;2023-12-22T04:32:45;0.45;;;0.20;;
22289;SDS011;11313;50.116;8.424;2023-12-22T04:35:10;0.55;;;0.28;;
22289;SDS011;11313;50.116;8.424;2023-12-22T04:37:36;0.35;;;0.28;;
22289;SDS011;11313;50.116;8.424;2023-12-22T04:40:01;0.43;;;0.30;;
22289;SDS011;11313;50.116;8.424;2023-12-22T04:42:27;0.30;;;0.30;;
22289;SDS011;11313;50.116;8.424;2023-12-22T04:44:53;0.57;;;0.40;;
22289;SDS011;11313;50.116;8.424;2023-12-22T04:47:18;0.50;;;0.40;;
22289;SDS011;11313;50.116;8.424;2023-12-22T04:49:44;1.15;;;0.30;;
22289;SDS011;11313;50.116;8.424;2023-12-22T04:52:10;0.75;;;0.40;;
22289;SDS011;11313;50.116;8.424;2023-12-22T04:54:36;0.28;;;0.28;;
22289;SDS011;11313;50.116;8.424;2023-12-22T04:57:02;0.50;;;0.32;;
22289;SDS011;11313;50.116;8.424;2023-12-22T04:59:28;0.55;;;0.38;;
22289;SDS011;11313;50.116;8.424;2023-12-22T05:01:54;1.00;;;0.30;;
22289;SDS011;11313;50.116;8.424;2023-12-22T05:04:20;0.50;;;0.30;;
22289;SDS011;11313;50.116;8.424;2023-12-22T05:06:46;0.52;;;0.40;;
22289;SDS011;11313;50.116;8.424;2023-12-22T05:09:12;0.55;;;0.50;;
22289;SDS011;11313;50.116;8.424;2023-12-22T05:11:37;0.68;;;0.45;;
22289;SDS011;11313;50.116;8.424;2023-12-22T05:14:04;0.80;;;0.40;;
22289;SDS011;11313;50.116;8.424;2023-12-22T05:16:29;0.40;;;0.40;;
22289;SDS011;11313;50.116;8.424;2023-12-22T05:18:56;1.95;;;0.30;;
22289;SDS011;11313;50.116;8.424;2023-12-22T05:21:23;0.60;;;0.38;;
22289;SDS011;11313;50.116;8.424;2023-12-22T05:23:48;0.20;;;0.20;;
22289;SDS011;11313;50.116;8.424;2023-12-22T05:26:18;0.50;;;0.40;;
22289;SDS011;11313;50.116;8.424;2023-12-22T05:28:47;0.45;;;0.45;;
22289;SDS011;11313;50.116;8.424;2023-12-22T05:31:14;0.57;;;0.38;;
22289;SDS011;11313;50.116;8.424;2023-12-22T05:33:41;1.63;;;0.30;;
22289;SDS011;11313;50.116;8.424;2023-12-22T05:36:06;3.17;;;0.40;;
22289;SDS011;11313;50.116;8.424;2023-12-22T05:38:32;0.57;;;0.40;;
22289;SDS011;11313;50.116;8.424;2023-12-22T05:40:57;2.65;;;0.35;;
22289;SDS011;11313;50.116;8.424;2023-12-22T05:43:23;3.92;;;0.35;;
22289;SDS011;11313;50.116;8.424;2023-12-22T05:45:49;2.42;;;0.40;;
22289;SDS011;11313;50.116;8.424;2023-12-22T05:48:14;2.40;;;0.40;;
22289;SDS011;11313;50.116;8.424;2023-12-22T05:50:40;0.70;;;0.50;;
22289;SDS011;11313;50.116;8.424;2023-12-22T05:53:05;2.10;;;0.45;;
22289;SDS011;11313;50.116;8.424;2023-12-22T05:55:31;1.30;;;0.30;;
22289;SDS011;11313;50.116;8.424;2023-12-22T05:57:56;3.83;;;0.40;;
22289;SDS011;11313;50.116;8.424;2023-12-22T06:00:22;1.95;;;0.40;;
22289;SDS011;11313;50.116;8.424;2023-12-22T06:02:47;0.50;;;0.30;;
22289;SDS011;11313;50.116;8.424;2023-12-22T06:05:13;1.48;;;0.68;;
22289;SDS011;11313;50.116;8.424;2023-12-22T06:07:39;3.13;;;0.50;;
22289;SDS011;11313;50.116;8.424;2023-12-22T06:10:05;1.25;;;0.40;;
22289;SDS011;11313;50.116;8.424;2023-12-22T06:12:32;4.03;;;0.38;;
22289;SDS011;11313;50.116;8.424;2023-12-22T06:14:57;1.73;;;0.32;;
22289;SDS011;11313;50.116;8.424;2023-12-22T06:17:23;1.00;;;0.40;;
22289;SDS011;11313;50.116;8.424;2023-12-22T06:19:48;1.42;;;0.40;;
22289;SDS011;11313;50.116;8.424;2023-12-22T06:22:13;1.02;;;0.40;;
22289;SDS011;11313;50.116;8.424;2023-12-22T06:24:39;1.00;;;0.40;;
22289;SDS011;11313;50.116;8.424;2023-12-22T06:27:04;1.58;;;0.45;;
22289;SDS011;11313;50.116;8.424;2023-12-22T06:29:31;1.85;;;0.50;;
22289;SDS011;11313;50.116;8.424;2023-12-22T06:31:57;2.25;;;0.47;;
22289;SDS011;11313;50.116;8.424;2023-12-22T06:34:22;1.45;;;0.47;;
22289;SDS011;11313;50.116;8.424;2023-12-22T06:36:49;1.23;;;0.50;;
22289;SDS011;11313;50.116;8.424;2023-12-22T06:39:15;1.25;;;0.50;;
22289;SDS011;11313;50.116;8.424;2023-12-22T06:41:40;8.48;;;1.30;;
22289;SDS011;11313;50.116;8.424;2023-12-22T06:44:06;3.88;;;1.10;;
22289;SDS011;11313;50.116;8.424;2023-12-22T06:46:32;4.10;;;1.00;;
22289;SDS011;11313;50.116;8.424;2023-12-22T06:48:58;6.63;;;0.85;;
22289;SDS011;11313;50.116;8.424;2023-12-22T06:51:24;7.00;;;1.20;;
22289;SDS011;11313;50.116;8.424;2023-12-22T06:53:51;4.72;;;0.90;;
22289;SDS011;11313;50.116;8.424;2023-12-22T06:56:18;3.97;;;0.70;;
22289;SDS011;11313;50.116;8.424;2023-12-22T06:58:49;3.17;;;0.68;;
22289;SDS011;11313;50.116;8.424;2023-12-22T07:01:22;7.93;;;0.80;;
22289;SDS011;11313;50.116;8.424;2023-12-22T07:03:53;8.45;;;1.10;;
22289;SDS011;11313;50.116;8.424;2023-12-22T07:06:19;2.97;;;0.80;;
22289;SDS011;11313;50.116;8.424;2023-12-22T07:08:56;6.32;;;1.15;;
22289;SDS011;11313;50.116;8.424;2023-12-22T07:11:41;8.40;;;0.93;;
22289;SDS011;11313;50.116;8.424;2023-12-22T07:14:08;5.82;;;1.02;;
22289;SDS011;11313;50.116;8.424;2023-12-22T07:16:34;7.47;;;0.90;;
22289;SDS011;11313;50.116;8.424;2023-12-22T07:19:01;2.25;;;0.80;;
22289;SDS011;11313;50.116;8.424;2023-12-22T07:21:27;5.32;;;0.90;;
22289;SDS011;11313;50.116;8.424;2023-12-22T07:23:52;4.70;;;1.08;;
22289;SDS011;11313;50.116;8.424;2023-12-22T07:26:18;5.13;;;1.02;;
22289;SDS011;11313;50.116;8.424;2023-12-22T07:28:43;3.85;;;1.13;;
22289;SDS011;11313;50.116;8.424;2023-12-22T07:31:09;5.10;;;1.00;;
22289;SDS011;11313;50.116;8.424;2023-12-22T07:33:34;2.60;;;1.08;;
22289;SDS011;11313;50.116;8.424;2023-12-22T07:36:00;4.72;;;1.20;;
22289;SDS011;11313;50.116;8.424;2023-12-22T07:38:25;3.80;;;0.93;;
22289;SDS011;11313;50.116;8.424;2023-12-22T07:40:52;5.18;;;1.05;;
22289;SDS011;11313;50.116;8.424;2023-12-22T07:43:17;2.92;;;1.10;;
22289;SDS011;11313;50.116;8.424;2023-12-22T07:45:43;4.57;;;0.90;;
22289;SDS011;11313;50.116;8.424;2023-12-22T07:48:08;4.18;;;1.17;;
22289;SDS011;11313;50.116;8.424;2023-12-22T07:50:34;2.53;;;0.73;;
22289;SDS011;11313;50.116;8.424;2023-12-22T07:52:59;6.07;;;1.27;;
22289;SDS011;11313;50.116;8.424;2023-12-22T07:55:25;9.65;;;1.02;;
22289;SDS011;11313;50.116;8.424;2023-12-22T07:57:50;3.78;;;1.00;;
22289;SDS011;11313;50.116;8.424;2023-12-22T08:00:16;3.20;;;0.88;;
22289;SDS011;11313;50.116;8.424;2023-12-22T08:02:42;2.63;;;1.00;;
22289;SDS011;11313;50.116;8.424;2023-12-22T08:05:08;6.43;;;1.10;;
22289;SDS011;11313;50.116;8.424;2023-12-22T08:07:34;3.85;;;1.00;;
22289;SDS011;11313;50.116;8.424;2023-12-22T08:10:00;7.95;;;1.58;;
22289;SDS011;11313;50.116;8.424;2023-12-22T08:17:45;8.40;;;1.00;;
22289;SDS011;11313;50.116;8.424;2023-12-22T08:20:15;4.15;;;1.33;;
22289;SDS011;11313;50.116;8.424;2023-12-22T08:22:47;3.92;;;1.13;;
22289;SDS011;11313;50.116;8.424;2023-12-22T08:25:49;4.22;;;1.05;;
22289;SDS011;11313;50.116;8.424;2023-12-22T08:29:20;4.93;;;0.98;;
22289;SDS011;11313;50.116;8.424;2023-12-22T08:34:26;4.38;;;0.80;;
22289;SDS011;11313;50.116;8.424;2023-12-22T08:36:52;3.83;;;1.05;;
22289;SDS011;11313;50.116;8.424;2023-12-22T08:39:18;3.42;;;0.90;;
22289;SDS011;11313;50.116;8.424;2023-12-22T08:41:43;3.05;;;0.70;;
22289;SDS011;11313;50.116;8.424;2023-12-22T08:44:09;2.15;;;0.80;;
22289;SDS011;11313;50.116;8.424;2023-12-22T08:46:35;2.78;;;0.90;;
22289;SDS011;11313;50.116;8.424;2023-12-22T08:49:01;2.85;;;1.00;;
22289;SDS011;11313;50.116;8.424;2023-12-22T08:51:27;3.30;;;0.98;;
22289;SDS011;11313;50.116;8.424;2023-12-22T08:53:54;2.95;;;0.90;;
22289;SDS011;11313;50.116;8.424;2023-12-22T08:56:23;3.67;;;0.80;;
22289;SDS011;11313;50.116;8.424;2023-12-22T08:58:50;3.58;;;0.93;;
22289;SDS011;11313;50.116;8.424;2023-12-22T09:01:17;2.33;;;0.73;;
22289;SDS011;11313;50.116;8.424;2023-12-22T09:03:43;2.55;;;0.73;;
22289;SDS011;11313;50.116;8.424;2023-12-22T09:06:15;3.55;;;0.85;;
22289;SDS011;11313;50.116;8.424;2023-12-22T09:08:42;4.80;;;0.98;;
22289;SDS011;11313;50.116;8.424;2023-12-22T09:11:08;2.70;;;0.75;;
22289;SDS011;11313;50.116;8.424;2023-12-22T09:13:34;2.75;;;1.02;;
22289;SDS011;11313;50.116;8.424;2023-12-22T09:16:00;2.67;;;0.70;;
22289;SDS011;11313;50.116;8.424;2023-12-22T09:18:27;2.05;;;0.80;;
22289;SDS011;11313;50.116;8.424;2023-12-22T09:20:53;3.88;;;0.80;;
22289;SDS011;11313;50.116;8.424;2023-12-22T09:23:18;2.30;;;0.70;;
22289;SDS011;11313;50.116;8.424;2023-12-22T09:25:44;2.03;;;0.70;;
22289;SDS011;11313;50.116;8.424;2023-12-22T09:28:10;1.75;;;0.80;;
22289;SDS011;11313;50.116;8.424;2023-12-22T09:30:36;1.92;;;0.63;;
22289;SDS011;11313;50.116;8.424;2023-12-22T09:33:01;2.17;;;0.70;;
22289;SDS011;11313;50.116;8.424;2023-12-22T09:35:27;2.42;;;0.70;;
22289;SDS011;11313;50.116;8.424;2023-12-22T09:37:53;2.05;;;0.70;;
22289;SDS011;11313;50.116;8.424;2023-12-22T09:40:18;3.10;;;0.90;;
22289;SDS011;11313;50.116;8.424;2023-12-22T09:42:44;3.33;;;1.00;;
22289;SDS011;11313;50.116;8.424;2023-12-22T09:45:11;2.03;;;0.77;;
22289;SDS011;11313;50.116;8.424;2023-12-22T09:47:41;2.47;;;0.90;;
22289;SDS011;11313;50.116;8.424;2023-12-22T09:50:08;2.65;;;0.70;;
22289;SDS011;11313;50.116;8.424;2023-12-22T09:52:34;2.88;;;0.80;;
22289;SDS011;11313;50.116;8.424;2023-12-22T09:55:02;3.80;;;0.77;;
22289;SDS011;11313;50.116;8.424;2023-12-22T09:57:28;3.55;;;0.85;;
22289;SDS011;11313;50.116;8.424;2023-12-22T09:59:55;5.22;;;0.88;;
22289;SDS011;11313;50.116;8.424;2023-12-22T10:02:24;5.05;;;1.15;;
22289;SDS011;11313;50.116;8.424;2023-12-22T10:04:51;4.68;;;0.90;;
22289;SDS011;11313;50.116;8.424;2023-12-22T10:07:17;1.88;;;0.80;;
22289;SDS011;11313;50.116;8.424;2023-12-22T10:09:43;7.65;;;0.93;;
22289;SDS011;11313;50.116;8.424;2023-12-22T10:12:12;2.03;;;0.70;;
22289;SDS011;11313;50.116;8.424;2023-12-22T10:14:38;2.15;;;0.77;;
22289;SDS011;11313;50.116;8.424;2023-12-22T10:17:05;3.50;;;0.70;;
22289;SDS011;11313;50.116;8.424;2023-12-22T10:19:30;5.47;;;0.98;;
22289;SDS011;11313;50.116;8.424;2023-12-22T10:21:56;2.55;;;0.93;;
22289;SDS011;11313;50.116;8.424;2023-12-22T10:25:06;5.22;;;0.93;;
22289;SDS011;11313;50.116;8.424;2023-12-22T10:27:09;3.08;;;0.90;;
22289;SDS011;11313;50.116;8.424;2023-12-22T10:29:36;2.28;;;0.90;;
22289;SDS011;11313;50.116;8.424;2023-12-22T10:32:02;1.95;;;0.50;;
22289;SDS011;11313;50.116;8.424;2023-12-22T10:34:29;2.53;;;0.73;;
22289;SDS011;11313;50.116;8.424;2023-12-22T10:36:55;3.15;;;0.80;;
22289;SDS011;11313;50.116;8.424;2023-12-22T10:39:21;1.75;;;0.80;;
22289;SDS011;11313;50.116;8.424;2023-12-22T10:41:47;2.85;;;1.00;;
22289;SDS011;11313;50.116;8.424;2023-12-22T10:44:16;4.85;;;1.25;;
22289;SDS011;11313;50.116;8.424;2023-12-22T10:46:42;2.90;;;1.00;;
22289;SDS011;11313;50.116;8.424;2023-12-22T10:49:08;2.75;;;1.10;;
22289;SDS011;11313;50.116;8.424;2023-12-22T10:51:34;3.75;;;1.27;;
22289;SDS011;11313;50.116;8.424;2023-12-22T10:53:59;3.38;;;1.17;;
22289;SDS011;11313;50.116;8.424;2023-12-22T10:56:25;3.65;;;1.20;;
22289;SDS011;11313;50.116;8.424;2023-12-22T10:58:51;2.22;;;1.30;;
22289;SDS011;11313;50.116;8.424;2023-12-22T11:01:18;3.00;;;1.33;;
22289;SDS011;11313;50.116;8.424;2023-12-22T11:03:47;2.72;;;1.20;;
22289;SDS011;11313;50.116;8.424;2023-12-22T11:06:15;3.10;;;1.40;;
22289;SDS011;11313;50.116;8.424;2023-12-22T11:08:41;3.63;;;1.38;;
22289;SDS011;11313;50.116;8.424;2023-12-22T11:11:13;4.57;;;1.60;;
22289;SDS011;11313;50.116;8.424;2023-12-22T11:13:44;4.22;;;1.45;;
22289;SDS011;11313;50.116;8.424;2023-12-22T11:16:10;3.58;;;1.48;;
22289;SDS011;11313;50.116;8.424;2023-12-22T11:18:37;3.38;;;1.40;;
22289;SDS011;11313;50.116;8.424;2023-12-22T11:21:03;6.53;;;1.63;;
22289;SDS011;11313;50.116;8.424;2023-12-22T11:23:31;5.05;;;1.52;;
22289;SDS011;11313;50.116;8.424;2023-12-22T11:25:58;2.58;;;1.38;;
22289;SDS011;11313;50.116;8.424;2023-12-22T11:28:26;5.45;;;1.60;;
22289;SDS011;11313;50.116;8.424;2023-12-22T11:30:51;3.53;;;1.38;;
22289;SDS011;11313;50.116;8.424;2023-12-22T11:33:19;4.15;;;1.60;;
22289;SDS011;11313;50.116;8.424;2023-12-22T11:35:46;5.63;;;1.58;;
22289;SDS011;11313;50.116;8.424;2023-12-22T11:38:12;5.07;;;1.42;;
22289;SDS011;11313;50.116;8.424;2023-12-22T11:40:39;4.38;;;1.40;;
22289;SDS011;11313;50.116;8.424;2023-12-22T11:43:05;4.75;;;1.50;;
22289;SDS011;11313;50.116;8.424;2023-12-22T11:45:32;4.97;;;1.55;;
22289;SDS011;11313;50.116;8.424;2023-12-22T11:48:04;4.53;;;1.80;;
22289;SDS011;11313;50.116;8.424;2023-12-22T11:50:31;5.88;;;1.40;;
22289;SDS011;11313;50.116;8.424;2023-12-22T11:53:16;4.07;;;1.38;;
22289;SDS011;11313;50.116;8.424;2023-12-22T11:56:04;6.38;;;1.75;;
22289;SDS011;11313;50.116;8.424;2023-12-22T11:58:43;5.63;;;1.50;;
22289;SDS011;11313;50.116;8.424;2023-12-22T12:01:16;2.90;;;1.50;;
22289;SDS011;11313;50.116;8.424;2023-12-22T12:03:58;4.40;;;1.50;;
22289;SDS011;11313;50.116;8.424;2023-12-22T12:09:01;5.13;;;1.33;;
22289;SDS011;11313;50.116;8.424;2023-12-22T12:14:21;5.43;;;1.58;;
22289;SDS011;11313;50.116;8.424;2023-12-22T12:16:56;3.20;;;1.15;;
22289;SDS011;11313;50.116;8.424;2023-12-22T12:19:30;7.70;;;1.67;;
22289;SDS011;11313;50.116;8.424;2023-12-22T12:21:56;5.85;;;1.50;;
22289;SDS011;11313;50.116;8.424;2023-12-22T12:24:22;6.22;;;1.80;;
22289;SDS011;11313;50.116;8.424;2023-12-22T12:26:47;8.25;;;1.95;;
22289;SDS011;11313;50.116;8.424;2023-12-22T12:29:14;6.40;;;1.52;;
22289;SDS011;11313;50.116;8.424;2023-12-22T12:31:41;4.97;;;1.58;;
22289;SDS011;11313;50.116;8.424;2023-12-22T12:34:07;3.42;;;1.10;;
22289;SDS011;11313;50.116;8.424;2023-12-22T12:36:35;3.80;;;1.45;;
22289;SDS011;11313;50.116;8.424;2023-12-22T12:39:05;5.30;;;1.35;;
22289;SDS011;11313;50.116;8.424;2023-12-22T12:41:42;7.05;;;1.83;;
22289;SDS011;11313;50.116;8.424;2023-12-22T12:44:11;6.35;;;1.70;;
22289;SDS011;11313;50.116;8.424;2023-12-22T12:46:37;5.07;;;1.30;;
22289;SDS011;11313;50.116;8.424;2023-12-22T12:49:04;6.05;;;1.45;;
22289;SDS011;11313;50.116;8.424;2023-12-22T12:51:47;3.55;;;1.50;;
22289;SDS011;11313;50.116;8.424;2023-12-22T12:54:13;5.15;;;1.83;;
22289;SDS011;11313;50.116;8.424;2023-12-22T12:56:40;4.45;;;1.48;;
22289;SDS011;11313;50.116;8.424;2023-12-22T12:59:07;3.28;;;1.50;;
22289;SDS011;11313;50.116;8.424;2023-12-22T13:01:44;3.67;;;1.50;;
22289;SDS011;11313;50.116;8.424;2023-12-22T13:04:10;5.72;;;1.50;;
22289;SDS011;11313;50.116;8.424;2023-12-22T13:06:47;5.80;;;1.50;;
22289;SDS011;11313;50.116;8.424;2023-12-22T13:09:13;4.35;;;1.33;;
22289;SDS011;11313;50.116;8.424;2023-12-22T13:11:38;4.75;;;1.60;;
22289;SDS011;11313;50.116;8.424;2023-12-22T13:14:07;5.78;;;1.40;;
22289;SDS011;11313;50.116;8.424;2023-12-22T13:16:33;2.70;;;1.05;;
22289;SDS011;11313;50.116;8.424;2023-12-22T13:18:59;3.70;;;1.20;;
22289;SDS011;11313;50.116;8.424;2023-12-22T13:21:26;4.80;;;1.50;;
22289;SDS011;11313;50.116;8.424;2023-12-22T13:27:00;3.50;;;1.58;;
22289;SDS011;11313;50.116;8.424;2023-12-22T13:29:28;2.65;;;1.35;;
22289;SDS011;11313;50.116;8.424;2023-12-22T13:31:54;2.90;;;1.38;;
22289;SDS011;11313;50.116;8.424;2023-12-22T13:34:20;6.13;;;1.40;;
22289;SDS011;11313;50.116;8.424;2023-12-22T13:36:46;3.97;;;1.40;;
22289;SDS011;11313;50.116;8.424;2023-12-22T13:39:12;5.20;;;1.85;;
22289;SDS011;11313;50.116;8.424;2023-12-22T13:41:38;2.83;;;1.20;;
22289;SDS011;11313;50.116;8.424;2023-12-22T13:44:10;4.38;;;1.42;;
22289;SDS011;11313;50.116;8.424;2023-12-22T13:46:36;3.22;;;1.45;;
22289;SDS011;11313;50.116;8.424;2023-12-22T13:49:05;5.10;;;1.45;;
22289;SDS011;11313;50.116;8.424;2023-12-22T13:51:42;2.25;;;1.23;;
22289;SDS011;11313;50.116;8.424;2023-12-22T13:54:08;4.20;;;1.30;;
22289;SDS011;11313;50.116;8.424;2023-12-22T13:56:35;4.55;;;1.35;;
22289;SDS011;11313;50.116;8.424;2023-12-22T13:59:01;4.53;;;1.48;;
22289;SDS011;11313;50.116;8.424;2023-12-22T14:01:27;4.25;;;1.35;;
22289;SDS011;11313;50.116;8.424;2023-12-22T14:03:53;4.43;;;1.42;;
22289;SDS011;11313;50.116;8.424;2023-12-22T14:06:18;3.25;;;1.02;;
22289;SDS011;11313;50.116;8.424;2023-12-22T14:08:44;5.25;;;1.42;;
22289;SDS011;11313;50.116;8.424;2023-12-22T14:11:10;2.88;;;1.05;;
22289;SDS011;11313;50.116;8.424;2023-12-22T14:13:35;4.55;;;1.15;;
22289;SDS011;11313;50.116;8.424;2023-12-22T14:16:05;4.40;;;1.33;;
22289;SDS011;11313;50.116;8.424;2023-12-22T14:18:31;5.28;;;1.30;;
22289;SDS011;11313;50.116;8.424;2023-12-22T14:20:57;5.32;;;1.50;;
22289;SDS011;11313;50.116;8.424;2023-12-22T14:23:23;3.13;;;1.02;;
22289;SDS011;11313;50.116;8.424;2023-12-22T14:25:49;3.10;;;1.20;;
22289;SDS011;11313;50.116;8.424;2023-12-22T14:28:14;3.10;;;1.30;;
22289;SDS011;11313;50.116;8.424;2023-12-22T14:30:40;3.58;;;1.25;;
22289;SDS011;11313;50.116;8.424;2023-12-22T14:33:05;3.83;;;1.30;;
22289;SDS011;11313;50.116;8.424;2023-12-22T14:35:31;3.40;;;1.40;;
22289;SDS011;11313;50.116;8.424;2023-12-22T14:37:56;3.53;;;1.35;;
22289;SDS011;11313;50.116;8.424;2023-12-22T14:40:22;2.45;;;1.00;;
22289;SDS011;11313;50.116;8.424;2023-12-22T14:42:47;3.03;;;0.98;;
22289;SDS011;11313;50.116;8.424;2023-12-22T14:45:13;3.58;;;1.10;;
22289;SDS011;11313;50.116;8.424;2023-12-22T14:47:38;3.15;;;1.10;;
22289;SDS011;11313;50.116;8.424;2023-12-22T14:50:04;3.95;;;1.10;;
22289;SDS011;11313;50.116;8.424;2023-12-22T14:52:30;2.22;;;0.93;;
22289;SDS011;11313;50.116;8.424;2023-12-22T14:55:00;3.95;;;1.17;;
22289;SDS011;11313;50.116;8.424;2023-12-22T14:57:25;3.13;;;1.15;;
22289;SDS011;11313;50.116;8.424;2023-12-22T14:59:53;3.22;;;1.10;;
22289;SDS011;11313;50.116;8.424;2023-12-22T15:02:19;2.85;;;1.10;;
22289;SDS011;11313;50.116;8.424;2023-12-22T15:04:45;3.00;;;1.02;;